Latest Weather Observations for Parndana

IDS60801

Issued at 9:35 am CST Tuesday 29 July 2014 (issued every 30 minutes, with the page automatically refreshed every 10 minutes)

About weather observations | Map of weather stations | Latest weather observations for SA | Other Formats
Station Details ID: 022843 Name: PARNDANA CFS AWS Lat: -35.79 Lon: 137.25 Height: 165.0 m
Data from the previous 72 hours. | See also: Recent months at Parndana
Date/Time
CST
Temp
°C
App
Temp
°C
Dew
Point
Rel
Hum
%
Delta-T
°C
Wind Press
QNH
hPa
Press
MSL
hPa
Rain
since 9 am
mm
Dir
 
Spd
km/h
Gust
km/h
Spd
kts
Gust
kts
29/09:30am 14.4 8.7 11.9 85 1.4 WNW 33 52 18 28 - - 0.0
29/09:27am 14.4 8.9 11.7 84 1.5 WNW 32 52 17 28 - - 0.0
29/09:00am 14.2 8.7 11.9 86 1.2 WNW 32 48 17 26 - - 3.2
29/08:48am 13.7 8.1 11.4 86 1.2 WNW 32 52 17 28 - - 3.2
29/08:30am 13.5 8.0 11.9 90 0.9 WNW 32 44 17 24 - - 3.2
29/08:00am 13.3 8.2 12.0 92 0.7 WNW 30 46 16 25 - - 2.2
29/07:30am 13.4 7.2 11.5 88 1.0 WNW 35 50 19 27 - - 1.6
29/07:00am 13.6 8.7 11.3 86 1.2 WNW 28 41 15 22 - - 1.6
29/06:30am 13.1 8.4 10.8 86 1.2 WNW 26 33 14 18 - - 1.6
29/06:00am 13.1 8.2 11.3 89 1.0 WNW 28 41 15 22 - - 1.6
29/05:30am 13.7 6.8 11.6 87 1.1 WNW 39 54 21 29 - - 1.4
29/05:06am 13.4 7.3 11.6 89 1.0 WNW 35 54 19 29 - - 1.4
29/05:00am 13.4 7.3 11.6 89 1.0 WNW 35 48 19 26 - - 1.4
29/04:52am 13.6 7.4 11.3 86 1.2 WNW 35 56 19 30 - - 1.4
29/04:30am 13.4 7.2 11.3 87 1.1 WNW 35 48 19 26 - - 1.4
29/04:20am 13.3 7.5 11.4 88 1.0 WNW 33 56 18 30 - - 1.4
29/04:00am 13.3 7.4 11.2 87 1.1 WNW 33 46 18 25 - - 1.4
29/03:30am 13.4 7.1 11.1 86 1.2 WNW 35 52 19 28 - - 1.2
29/03:07am 13.7 7.8 11.0 84 1.4 WNW 33 54 18 29 - - 1.2
29/03:00am 13.5 7.1 10.7 83 1.5 WNW 35 54 19 29 - - 1.2
29/02:30am 13.5 7.2 11.0 85 1.3 NW 35 56 19 30 - - 1.2
29/02:00am 13.6 6.8 10.8 83 1.5 WNW 37 57 20 31 - - 1.2
29/01:59am 13.5 6.7 10.7 83 1.5 WNW 37 57 20 31 - - 1.2
29/01:30am 13.1 7.2 10.3 83 1.5 WNW 32 43 17 23 - - 1.2
29/01:00am 13.3 7.4 10.5 83 1.5 WNW 32 59 17 32 - - 1.2
29/12:38am 13.4 7.4 10.8 84 1.4 WNW 33 52 18 28 - - 1.2
29/12:30am 13.5 8.2 11.4 87 1.1 WNW 30 46 16 25 - - 1.2
29/12:03am 13.4 7.6 11.5 88 1.0 NW 33 54 18 29 - - 1.2
29/12:00am 13.4 7.3 11.6 89 1.0 NW 35 48 19 26 - - 1.2
 
Date/Time
CST
Temp
°C
App
Temp
°C
Dew
Point
Rel
Hum
%
Delta-T
°C
Wind Press
QNH
hPa
Press
MSL
hPa
Rain
since 9 am
mm
Dir
 
Spd
km/h
Gust
km/h
Spd
kts
Gust
kts
28/11:35pm 13.2 7.7 11.9 92 0.7 NW 32 50 17 27 - - 1.2
28/11:30pm 13.3 7.6 11.9 91 0.8 NW 33 50 18 27 - - 1.2
28/11:14pm 13.2 8.1 11.9 92 0.7 WNW 30 48 16 26 - - 1.0
28/11:00pm 13.3 7.6 11.7 90 0.9 NW 33 48 18 26 - - 0.8
28/10:30pm 13.2 8.4 11.6 90 0.9 NW 28 44 15 24 - - 0.6
28/10:00pm 13.2 8.4 11.8 91 0.8 NW 28 39 15 21 - - 0.4
28/09:30pm 13.2 8.4 11.8 91 0.8 NW 28 41 15 22 - - 0.2
28/09:00pm 13.4 8.3 11.8 90 0.9 NW 30 44 16 24 - - 0.0
28/08:43pm 13.7 8.1 11.6 87 1.1 NW 32 52 17 28 - - 0.0
28/08:30pm 13.7 7.8 11.2 85 1.3 NW 33 48 18 26 - - 0.0
28/08:00pm 13.6 7.9 11.0 84 1.4 NW 32 50 17 27 - - 0.0
28/07:59pm 13.5 7.8 11.0 85 1.3 NW 32 50 17 27 - - 0.0
28/07:30pm 13.4 8.0 10.8 84 1.4 NW 30 39 16 21 - - 0.0
28/07:26pm 13.5 7.5 10.9 84 1.4 NW 33 54 18 29 - - 0.0
28/07:00pm 13.7 7.9 10.7 82 1.6 NW 32 44 17 24 - - 0.0
28/06:30pm 13.5 7.1 10.7 83 1.5 NW 35 57 19 31 - - 0.0
28/06:00pm 13.4 7.4 10.9 85 1.3 NW 33 50 18 27 - - 0.0
28/05:30pm 13.3 7.6 11.2 87 1.1 NW 32 43 17 23 - - 0.0
28/05:19pm 13.2 7.1 10.6 84 1.4 NW 33 52 18 28 - - 0.0
28/05:00pm 13.6 8.2 10.8 83 1.5 NW 30 41 16 22 - - 0.0
28/04:30pm 13.8 7.8 10.8 82 1.6 NW 33 48 18 26 - - 0.0
28/04:00pm 13.8 7.4 10.6 81 1.7 NW 35 48 19 26 - - 0.0
28/03:34pm 14.1 8.3 10.9 81 1.7 NW 32 52 17 28 - - 0.0
28/03:30pm 14.1 8.0 10.3 78 2.0 NW 33 52 18 28 - - 0.0
28/03:17pm 14.0 7.9 10.6 80 1.8 NW 33 52 18 28 - - 0.0
28/03:00pm 14.1 7.7 10.7 80 1.8 NW 35 52 19 28 - - 0.0
28/02:45pm 14.1 8.3 10.7 80 1.8 NW 32 50 17 27 - - 0.0
28/02:30pm 14.5 8.6 11.1 80 1.8 NW 33 44 18 24 - - 0.0
28/02:00pm 14.3 7.9 10.7 79 1.9 NW 35 48 19 26 - - 0.0
28/01:30pm 15.0 9.4 11.6 80 1.8 NW 32 48 17 26 - - 0.0
28/01:24pm 14.9 9.6 11.1 78 2.0 NW 30 48 16 26 - - 0.0
28/01:00pm 14.2 8.8 10.8 80 1.8 NW 30 43 16 23 - - 0.0
28/12:30pm 15.0 9.4 11.4 79 1.9 NW 32 43 17 23 - - 0.0
28/12:00pm 14.8 9.3 11.8 82 1.6 NW 32 43 17 23 - - 0.0
28/11:30am 15.3 9.9 12.2 82 1.7 NW 32 41 17 22 - - 0.0
28/11:00am 15.0 10.2 11.8 81 1.7 NW 28 43 15 23 - - 0.0
28/10:30am 14.5 9.5 10.9 79 1.9 NW 28 39 15 21 - - 0.0
28/10:00am 14.3 10.0 10.9 80 1.8 NW 24 46 13 25 - - 0.0
28/09:30am 13.6 9.6 10.4 81 1.7 NW 22 32 12 17 - - 0.0
28/09:00am 13.0 9.6 10.7 86 1.2 NW 19 26 10 14 - - 0.2
28/08:30am 11.6 8.7 9.7 88 1.0 NW 15 19 8 10 - - 0.2
28/08:00am 10.0 7.1 8.3 89 0.8 NW 13 17 7 9 - - 0.2
28/07:30am 9.8 6.1 7.9 88 0.9 NW 17 20 9 11 - - 0.2
28/07:00am 9.2 6.2 7.8 91 0.7 NW 13 17 7 9 - - 0.2
28/06:30am 8.8 5.8 7.7 93 0.5 NW 13 15 7 8 - - 0.2
28/06:00am 8.8 6.2 7.6 92 0.6 NW 11 15 6 8 - - 0.2
28/05:30am 9.3 6.8 8.4 94 0.4 NW 11 13 6 7 - - 0.2
28/05:00am 9.6 7.2 8.7 94 0.4 NW 11 15 6 8 - - 0.0
28/04:30am 10.0 8.2 9.4 96 0.3 NW 9 9 5 5 - - 0.0
28/04:00am 9.9 8.4 9.1 95 0.4 NW 7 11 4 6 - - 0.0
28/03:30am 10.2 8.4 9.3 94 0.5 NW 9 11 5 6 - - 0.0
28/03:00am 10.9 8.5 10.0 94 0.5 WNW 13 15 7 8 - - 0.0
28/02:30am 10.5 8.4 9.7 95 0.4 NW 11 13 6 7 - - 0.0
28/02:00am 11.0 8.6 10.2 95 0.4 NW 13 15 7 8 - - 0.0
28/01:30am 11.7 9.6 11.1 96 0.3 NW 13 15 7 8 - - 0.0
28/01:00am 11.5 10.0 10.7 95 0.4 NW 9 13 5 7 - - 0.0
28/12:30am 11.8 10.0 10.9 94 0.5 NNW 11 15 6 8 - - 0.0
28/12:00am 11.9 10.0 10.6 92 0.7 NW 11 13 6 7 - - 0.0
 
Date/Time
CST
Temp
°C
App
Temp
°C
Dew
Point
Rel
Hum
%
Delta-T
°C
Wind Press
QNH
hPa
Press
MSL
hPa
Rain
since 9 am
mm
Dir
 
Spd
km/h
Gust
km/h
Spd
kts
Gust
kts
27/11:30pm 12.8 11.2 11.5 92 0.7 NW 11 15 6 8 - - 0.0
27/11:00pm 12.6 10.5 11.0 90 0.8 NNW 13 17 7 9 - - 0.0
27/10:30pm 12.6 9.6 10.8 89 0.9 NNW 17 22 9 12 - - 0.0
27/10:00pm 12.1 9.8 10.3 89 0.9 NNW 13 19 7 10 - - 0.0
27/09:30pm 12.0 9.2 9.9 87 1.1 NNW 15 19 8 10 - - 0.0
27/09:00pm 12.4 8.8 9.8 84 1.3 NW 19 26 10 14 - - 0.0
27/08:30pm 12.4 8.7 9.6 83 1.4 NW 19 26 10 14 - - 0.0
27/08:00pm 12.7 8.9 9.7 82 1.5 NW 20 28 11 15 - - 0.0
27/07:30pm 12.9 9.1 9.7 81 1.6 NNW 20 24 11 13 - - 0.0
27/07:00pm 13.0 9.0 9.1 77 2.0 NW 20 26 11 14 - - 0.0
27/06:30pm 12.5 9.1 9.1 80 1.7 NNW 17 22 9 12 - - 0.0
27/06:00pm 12.8 9.1 9.3 79 1.8 NNW 19 24 10 13 - - 0.0
27/05:30pm 13.0 9.3 9.3 78 1.9 NNW 19 24 10 13 - - 0.0
27/05:00pm 13.6 10.3 9.6 77 2.1 NNW 17 24 9 13 - - 0.0
27/04:30pm 14.4 11.5 9.8 74 2.4 NNW 15 26 8 14 - - 0.0
27/04:00pm 14.8 10.2 9.8 72 2.6 NNW 24 33 13 18 - - 0.0
27/03:30pm 14.7 9.8 9.9 73 2.5 NNW 26 37 14 20 - - 0.0
27/03:00pm 14.3 8.8 9.3 72 2.6 NNW 28 37 15 20 - - 0.0
27/02:30pm 13.9 9.2 9.3 74 2.4 NNW 24 33 13 18 - - 0.0
27/02:00pm 14.0 8.5 9.2 73 2.5 NNW 28 39 15 21 - - 0.0
27/01:32pm 13.9 8.2 8.3 69 2.8 NNW 28 48 15 26 - - 0.0
27/01:30pm 14.0 8.7 8.6 70 2.7 NNW 26 44 14 24 - - 0.0
27/01:00pm 14.3 8.7 8.9 70 2.8 NNW 28 46 15 25 - - 0.0
27/12:30pm 14.1 7.8 8.9 71 2.7 N 32 44 17 24 - - 0.0
27/12:00pm 14.7 9.4 9.7 72 2.6 NNW 28 39 15 21 - - 0.0
27/11:30am 13.9 8.9 9.5 75 2.3 N 26 37 14 20 - - 0.0
27/11:00am 13.3 8.4 10.1 81 1.7 N 26 35 14 19 - - 0.0
27/10:30am 12.7 7.3 9.5 81 1.6 N 28 37 15 20 - - 0.0
27/10:00am 12.5 7.5 9.5 82 1.5 NNW 26 41 14 22 - - 0.0
27/09:30am 12.0 7.4 9.6 85 1.2 N 24 33 13 18 - - 0.0
27/09:00am 11.9 8.0 9.6 86 1.2 N 20 30 11 16 - - 0.2
27/08:30am 11.5 7.9 9.8 89 0.9 NNW 19 28 10 15 - - 0.2
27/08:00am 11.2 8.0 9.8 91 0.7 NNW 17 22 9 12 - - 0.2
27/07:30am 10.9 7.6 9.7 92 0.6 N 17 22 9 12 - - 0.2
27/07:00am 10.8 7.1 9.4 91 0.7 N 19 24 10 13 - - 0.2
27/06:30am 10.7 7.8 9.6 93 0.6 N 15 22 8 12 - - 0.2
27/06:00am 10.7 8.2 9.6 93 0.6 N 13 19 7 10 - - 0.2
27/05:30am 10.4 7.8 9.3 93 0.6 N 13 17 7 9 - - 0.0
27/05:00am 10.1 8.3 9.3 95 0.4 N 9 13 5 7 - - 0.0
27/04:30am 10.2 8.4 9.4 95 0.4 NNW 9 13 5 7 - - 0.0
27/04:00am 9.0 7.2 8.1 94 0.4 N 7 9 4 5 - - 0.0
27/03:30am 9.5 7.8 8.4 93 0.5 N 7 11 4 6 - - 0.0
27/03:00am 10.2 7.8 8.8 91 0.7 N 11 15 6 8 - - 0.0
27/02:30am 10.4 7.6 8.7 89 0.8 N 13 19 7 10 - - 0.0
27/02:00am 10.4 6.9 8.7 89 0.8 N 17 20 9 11 - - 0.0
27/01:30am 10.6 7.8 8.7 88 0.9 N 13 17 7 9 - - 0.0
27/01:00am 10.8 7.6 8.6 86 1.1 N 15 17 8 9 - - 0.0
27/12:30am 10.5 7.3 8.4 87 1.0 N 15 22 8 12 - - 0.0
27/12:00am 10.2 6.2 8.3 88 0.9 N 19 22 10 12 - - 0.0
 
Date/Time
CST
Temp
°C
App
Temp
°C
Dew
Point
Rel
Hum
%
Delta-T
°C
Wind Press
QNH
hPa
Press
MSL
hPa
Rain
since 9 am
mm
Dir
 
Spd
km/h
Gust
km/h
Spd
kts
Gust
kts
26/11:30pm 9.9 6.3 8.2 89 0.8 N 17 24 9 13 - - 0.0
26/11:00pm 9.7 6.0 7.8 88 0.9 N 17 22 9 12 - - 0.0
26/10:30pm 9.7 6.2 8.6 93 0.5 N 17 24 9 13 - - 0.0
26/10:00pm 9.3 6.2 8.7 96 0.3 N 15 20 8 11 - - 0.0
26/09:30pm 8.6 6.1 8.2 97 0.2 N 11 13 6 7 - - 0.0
26/09:00pm 8.3 6.1 7.7 96 0.3 N 9 11 5 6 - - 0.0
26/08:30pm 8.2 6.2 7.3 94 0.4 N 7 9 4 5 - - 0.0
26/08:00pm 8.4 6.1 7.5 94 0.4 N 9 11 5 6 - - 0.0
26/07:30pm 8.6 6.7 7.5 93 0.5 N 7 9 4 5 - - 0.0
26/07:00pm 9.1 6.9 7.7 91 0.7 N 9 9 5 5 - - 0.0
26/06:30pm 9.8 8.0 8.1 89 0.8 N 7 9 4 5 - - 0.0
26/06:00pm 10.2 8.1 8.1 87 1.0 N 9 11 5 6 - - 0.0
26/05:30pm 11.0 8.5 8.2 83 1.4 NNW 11 17 6 9 - - 0.0
26/05:00pm 12.3 9.1 8.4 77 1.9 NNW 15 22 8 12 - - 0.0
26/04:30pm 12.9 9.1 9.0 77 2.0 NNW 19 26 10 14 - - 0.0
26/04:00pm 13.3 9.5 9.7 79 1.9 NNW 20 26 11 14 - - 0.0
26/03:30pm 13.4 9.7 10.0 80 1.8 NW 20 26 11 14 - - 0.0
26/03:00pm 14.2 10.8 10.4 78 2.0 NW 19 26 10 14 - - 0.0
26/02:30pm 14.4 10.8 10.6 78 2.0 NW 20 28 11 15 - - 0.0
26/02:00pm 14.6 11.0 10.4 76 2.2 NW 20 30 11 16 - - 0.0
26/01:30pm 14.3 10.5 9.7 74 2.4 NW 20 26 11 14 - - 0.0
26/01:00pm 14.2 10.5 9.6 74 2.4 NW 19 26 10 14 - - 0.0
26/12:30pm 14.4 10.2 9.8 74 2.4 NNW 22 28 12 15 - - 0.0
26/12:00pm 14.1 10.5 10.5 79 1.9 NW 20 28 11 15 - - 0.0
26/11:30am 12.9 9.6 10.8 87 1.1 NNW 19 26 10 14 - - 0.0
26/11:00am 14.4 12.1 11.9 85 1.4 NNW 15 20 8 11 - - 0.0
26/10:30am 13.6 11.5 11.3 86 1.2 NNW 13 17 7 9 - - 0.0
26/10:00am 12.4 10.7 11.1 92 0.7 NNW 11 17 6 9 - - 0.0

Other Formats:

Comma delimited format used in spreadsheet applications
http://www.bom.gov.au/fwo/IDS60801/IDS60801.94807.axf

JavaScript Object Notation format (JSON) in row-major order
http://www.bom.gov.au/fwo/IDS60801/IDS60801.94807.json